Time;durP1;ratioP1;P1;durP2;ratioP2;P2;SDS_P1;SDS_P2;PMS_P1;PMS_P2;Temp;Humidity;BMP_temperature;BMP_pressure;BME280_temperature;BME280_humidity;BME280_pressure;Samples;Min_cycle;Max_cycle;Signal;HPM_P1;HPM_P2
2021/09/01 00:01:00;;;;;;;18.00;5.93;;;;;;;14.91;100.00;102823.50;5282367;28;20496;-69
2021/09/01 00:03:30;;;;;;;18.33;5.60;;;;;;;14.91;100.00;102820.81;5277015;28;20066;-69
2021/09/01 00:06:01;;;;;;;18.63;5.60;;;;;;;14.92;100.00;102814.44;5272043;28;20106;-67
2021/09/01 00:08:32;;;;;;;16.85;6.18;;;;;;;14.99;100.00;102815.53;5282875;28;20022;-69
2021/09/01 00:11:03;;;;;;;19.42;5.70;;;;;;;14.97;100.00;102812.13;5269337;28;20439;-69
2021/09/01 00:13:33;;;;;;;22.10;5.82;;;;;;;14.94;100.00;102817.81;5261700;28;20062;-70
2021/09/01 00:16:04;;;;;;;22.52;5.45;;;;;;;15.03;100.00;102815.09;5261583;28;20054;-69
2021/09/01 00:18:35;;;;;;;16.60;5.70;;;;;;;14.96;100.00;102814.00;5261253;28;20175;-69
2021/09/01 00:21:05;;;;;;;13.80;5.25;;;;;;;14.98;100.00;102811.97;5260264;28;20548;-69
2021/09/01 00:23:35;;;;;;;15.27;4.82;;;;;;;15.00;100.00;102811.81;5261077;28;20032;-69
2021/09/01 00:26:06;;;;;;;16.13;4.90;;;;;;;15.01;100.00;102803.59;5261246;28;20103;-69
2021/09/01 00:28:36;;;;;;;13.60;4.97;;;;;;;14.98;100.00;102805.72;5261076;28;20020;-69
2021/09/01 00:31:07;;;;;;;21.92;5.32;;;;;;;14.92;100.00;102806.31;5262711;28;20473;-69
2021/09/01 00:33:38;;;;;;;23.85;4.97;;;;;;;14.92;100.00;102803.63;5281368;28;20092;-69
2021/09/01 00:36:08;;;;;;;20.38;5.50;;;;;;;14.95;100.00;102801.44;5278003;28;20054;-69
2021/09/01 00:38:39;;;;;;;13.55;5.18;;;;;;;14.88;100.00;102810.31;5272537;28;20027;-69
2021/09/01 00:41:18;;;;;;;30.00;6.68;;;;;;;14.90;100.00;102817.25;5275222;28;20495;-69
2021/09/01 00:43:50;;;;;;;23.55;6.78;;;;;;;14.89;100.00;102814.72;5260935;28;20069;-69
2021/09/01 00:46:22;;;;;;;19.17;5.75;;;;;;;14.92;100.00;102814.44;5269910;28;20023;-69
2021/09/01 00:48:53;;;;;;;22.92;5.70;;;;;;;15.01;100.00;102802.75;5281809;28;20035;-69
2021/09/01 00:51:24;;;;;;;16.70;6.80;;;;;;;14.97;100.00;102809.44;5281152;28;20047;-69
2021/09/01 00:53:55;;;;;;;22.83;6.97;;;;;;;14.92;100.00;102809.03;5281915;28;20499;-69
2021/09/01 00:56:25;;;;;;;22.80;6.95;;;;;;;14.94;100.00;102809.72;5281597;28;20075;-69
2021/09/01 00:58:57;;;;;;;17.70;6.30;;;;;;;14.89;100.00;102810.16;5274932;28;20507;-69
2021/09/01 01:01:27;;;;;;;17.52;5.53;;;;;;;14.82;100.00;102806.34;5260355;28;20028;-69
2021/09/01 01:03:58;;;;;;;25.92;7.13;;;;;;;14.84;100.00;102819.69;5259957;28;20488;-69
2021/09/01 01:06:35;;;;;;;17.65;6.07;;;;;;;14.82;100.00;102819.00;5260637;28;20512;-69
2021/09/01 01:09:06;;;;;;;21.48;5.80;;;;;;;14.97;100.00;102823.78;5259649;28;20110;-69
2021/09/01 01:11:37;;;;;;;20.13;5.40;;;;;;;15.01;100.00;102819.81;5263485;28;20503;-69
2021/09/01 01:14:08;;;;;;;20.33;6.03;;;;;;;15.02;100.00;102820.66;5281498;28;20026;-69
2021/09/01 01:16:38;;;;;;;18.83;6.57;;;;;;;14.92;100.00;102819.84;5281061;28;20015;-69
2021/09/01 01:19:09;;;;;;;15.80;5.25;;;;;;;14.91;100.00;102818.09;5280916;28;20035;-69
2021/09/01 01:21:39;;;;;;;17.63;5.10;;;;;;;14.89;100.00;102820.97;5280500;28;20059;-69
2021/09/01 01:24:10;;;;;;;17.42;5.93;;;;;;;14.82;100.00;102819.00;5281705;28;20076;-69
2021/09/01 01:26:42;;;;;;;22.55;6.60;;;;;;;14.79;100.00;102824.69;5281234;28;20024;-69
2021/09/01 01:29:13;;;;;;;18.52;5.63;;;;;;;14.76;100.00;102812.34;5280584;28;20050;-69
2021/09/01 01:31:43;;;;;;;24.40;5.65;;;;;;;14.74;100.00;102817.03;5281334;22;20033;-82
2021/09/01 01:34:14;;;;;;;11.90;5.50;;;;;;;14.72;100.00;102819.03;5224470;28;20398;-81
2021/09/01 01:36:45;;;;;;;22.67;6.25;;;;;;;14.70;100.00;102816.47;5204633;28;20021;-81
2021/09/01 01:39:16;;;;;;;25.75;7.25;;;;;;;14.71;100.00;102825.44;5168275;28;20025;-81
2021/09/01 01:41:46;;;;;;;26.30;6.05;;;;;;;14.68;100.00;102823.88;5201990;28;20021;-81
2021/09/01 01:44:17;;;;;;;20.63;5.68;;;;;;;14.68;100.00;102825.72;5201662;28;20116;-81
2021/09/01 01:46:47;;;;;;;21.05;6.07;;;;;;;14.65;100.00;102818.75;5183910;28;20024;-81
2021/09/01 01:49:20;;;;;;;21.85;5.45;;;;;;;14.62;100.00;102824.44;5201723;28;20037;-81
2021/09/01 01:51:51;;;;;;;21.52;5.45;;;;;;;14.64;100.00;102818.91;5170676;28;20026;-81
2021/09/01 01:54:21;;;;;;;21.13;5.55;;;;;;;14.65;100.00;102821.44;5184132;28;20219;-81
2021/09/01 01:56:52;;;;;;;17.45;5.03;;;;;;;14.72;100.00;102819.88;5184024;28;20112;-81
2021/09/01 01:59:23;;;;;;;17.15;5.38;;;;;;;14.73;100.00;102820.72;5192392;28;20041;-81
2021/09/01 02:01:53;;;;;;;20.58;4.93;;;;;;;14.72;100.00;102813.63;5197253;28;20025;-81
2021/09/01 02:04:25;;;;;;;16.67;4.97;;;;;;;14.68;100.00;102821.16;5201350;28;20025;-81
2021/09/01 02:06:55;;;;;;;18.55;5.15;;;;;;;14.68;100.00;102823.00;5201376;28;20033;-81
2021/09/01 02:09:26;;;;;;;14.43;5.00;;;;;;;14.68;100.00;102823.00;5200894;28;20029;-81
2021/09/01 02:11:57;;;;;;;17.02;4.97;;;;;;;14.70;100.00;102826.41;5167386;28;20063;-81
2021/09/01 02:14:27;;;;;;;19.83;5.38;;;;;;;14.68;100.00;102823.00;5201337;28;20034;-81
2021/09/01 02:16:58;;;;;;;17.20;4.95;;;;;;;14.66;100.00;102825.88;5183780;28;20025;-81
2021/09/01 02:19:28;;;;;;;19.08;4.80;;;;;;;14.65;100.00;102832.25;5201085;28;20144;-81
2021/09/01 02:21:59;;;;;;;19.80;5.97;;;;;;;14.63;100.00;102828.84;5201035;28;20084;-81
2021/09/01 02:24:29;;;;;;;18.83;5.35;;;;;;;14.60;100.00;102834.53;5199958;28;20521;-81
2021/09/01 02:27:00;;;;;;;12.77;5.10;;;;;;;14.58;100.00;102831.13;5190395;28;20434;-81
2021/09/01 02:29:30;;;;;;;17.75;4.97;;;;;;;14.57;100.00;102834.84;5200817;28;20029;-81
2021/09/01 02:32:02;;;;;;;12.05;4.30;;;;;;;14.54;100.00;102835.13;5200669;28;20067;-81
2021/09/01 02:34:33;;;;;;;18.20;5.82;;;;;;;14.54;100.00;102827.00;5189811;28;20036;-82
2021/09/01 02:37:03;;;;;;;19.88;5.70;;;;;;;14.60;100.00;102825.56;5209399;28;20018;-81
2021/09/01 02:39:34;;;;;;;21.02;4.72;;;;;;;14.61;100.00;102822.75;5193265;28;20045;-81
2021/09/01 02:42:05;;;;;;;16.05;4.60;;;;;;;14.59;100.00;102823.88;5201530;28;20100;-82
2021/09/01 02:44:35;;;;;;;19.70;4.78;;;;;;;14.58;100.00;102823.03;5201716;28;20677;-81
2021/09/01 02:47:05;;;;;;;18.98;4.75;;;;;;;14.56;100.00;102818.75;5201637;28;20022;-81
2021/09/01 02:49:36;;;;;;;21.55;4.88;;;;;;;14.56;100.00;102826.84;5201189;28;20649;-81
2021/09/01 02:52:07;;;;;;;14.07;4.38;;;;;;;14.57;100.00;102825.88;5201232;28;20017;-81
2021/09/01 02:54:37;;;;;;;19.65;4.70;;;;;;;14.62;100.00;102823.59;5201023;28;20371;-82
2021/09/01 02:57:08;;;;;;;14.88;4.28;;;;;;;14.65;100.00;102826.00;5183416;28;20046;-81
2021/09/01 02:59:38;;;;;;;23.15;4.95;;;;;;;14.69;100.00;102830.13;5195205;28;20276;-81
2021/09/01 03:02:09;;;;;;;18.73;4.95;;;;;;;14.64;100.00;102817.03;5191881;28;20022;-81
2021/09/01 03:04:39;;;;;;;17.67;4.82;;;;;;;14.63;100.00;102815.34;5192163;28;20053;-81
2021/09/01 03:07:10;;;;;;;15.13;4.50;;;;;;;14.61;100.00;102819.16;5203885;28;20044;-81
2021/09/01 03:09:40;;;;;;;18.67;4.30;;;;;;;14.63;100.00;102819.91;5186433;28;20083;-81
2021/09/01 03:12:11;;;;;;;19.05;5.03;;;;;;;14.60;100.00;102820.19;5174224;28;20036;-82
2021/09/01 03:14:41;;;;;;;15.20;4.40;;;;;;;14.57;100.00;102820.47;5204190;28;20037;-81
2021/09/01 03:17:11;;;;;;;19.73;5.13;;;;;;;14.54;100.00;102821.63;5204804;28;20391;-81
2021/09/01 03:19:42;;;;;;;21.85;4.97;;;;;;;14.58;100.00;102822.19;5204330;28;20033;-81
2021/09/01 03:22:13;;;;;;;17.58;5.07;;;;;;;14.57;100.00;102821.34;5194583;28;20546;-82
2021/09/01 03:24:43;;;;;;;16.60;5.20;;;;;;;14.59;100.00;102819.31;5179470;28;20047;-81
2021/09/01 03:27:14;;;;;;;19.23;5.38;;;;;;;14.67;100.00;102811.38;5195858;28;20114;-81
2021/09/01 03:29:44;;;;;;;16.85;4.57;;;;;;;14.66;100.00;102804.25;5204028;28;20064;-81
2021/09/01 03:32:15;;;;;;;21.55;5.63;;;;;;;14.65;100.00;102813.34;5204269;28;20021;-81
2021/09/01 03:34:45;;;;;;;11.98;3.95;;;;;;;14.66;100.00;102804.25;5191053;28;20124;-81
2021/09/01 03:37:16;;;;;;;12.85;4.10;;;;;;;14.66;100.00;102804.25;5203503;28;20383;-82
2021/09/01 03:39:47;;;;;;;19.10;4.38;;;;;;;14.65;100.00;102807.94;5170037;28;20155;-82
2021/09/01 03:42:17;;;;;;;18.98;4.80;;;;;;;14.64;100.00;102802.69;5203510;28;20135;-81
2021/09/01 03:44:48;;;;;;;14.52;3.83;;;;;;;14.63;100.00;102799.13;5203636;28;20533;-81
2021/09/01 03:47:18;;;;;;;17.02;4.70;;;;;;;14.59;100.00;102803.13;5172804;28;20071;-81
2021/09/01 03:49:49;;;;;;;16.90;4.78;;;;;;;14.62;100.00;102796.59;5203276;28;20116;-81
2021/09/01 03:52:19;;;;;;;15.82;4.60;;;;;;;14.60;100.00;102804.81;5203609;28;20035;-81
2021/09/01 03:54:50;;;;;;;19.40;5.75;;;;;;;14.60;100.00;102798.56;5203782;28;20471;-81
2021/09/01 03:57:20;;;;;;;17.52;4.43;;;;;;;14.61;100.00;102801.16;5203463;28;20486;-80
2021/09/01 03:59:51;;;;;;;16.88;4.70;;;;;;;14.63;100.00;102809.94;5203128;28;20029;-81
2021/09/01 04:02:21;;;;;;;12.32;4.60;;;;;;;14.69;100.00;102803.94;5203236;28;20560;-81
2021/09/01 04:04:52;;;;;;;19.35;5.00;;;;;;;14.68;100.00;102812.22;5203103;28;20088;-80
2021/09/01 04:07:22;;;;;;;13.98;4.63;;;;;;;14.68;100.00;102818.47;5185455;28;20021;-81
2021/09/01 04:09:52;;;;;;;15.55;5.18;;;;;;;14.73;100.00;102813.47;5203043;28;20100;-81
2021/09/01 04:12:23;;;;;;;13.52;4.38;;;;;;;14.76;100.00;102809.66;5202981;28;20064;-81
2021/09/01 04:14:54;;;;;;;17.95;4.30;;;;;;;14.69;100.00;102819.31;5203097;28;20021;-82
2021/09/01 04:17:29;;;;;;;15.18;4.82;;;;;;;14.74;100.00;102812.47;5169332;28;20100;-81
2021/09/01 04:20:00;;;;;;;13.73;3.78;;;;;;;14.76;100.00;102817.75;5197425;28;20026;-81
2021/09/01 04:22:30;;;;;;;14.20;4.20;;;;;;;14.80;100.00;102818.28;5162190;28;20033;-81
2021/09/01 04:25:01;;;;;;;16.58;3.67;;;;;;;14.76;100.00;102821.31;5202728;28;20013;-82
2021/09/01 04:27:32;;;;;;;11.18;3.60;;;;;;;14.68;100.00;102823.00;5190015;28;20301;-82
2021/09/01 04:30:03;;;;;;;14.55;3.92;;;;;;;14.68;100.00;102818.47;5203172;28;20029;-81
2021/09/01 04:32:34;;;;;;;13.00;4.22;;;;;;;14.62;100.00;102823.59;5202994;28;20491;-82
2021/09/01 04:35:04;;;;;;;21.17;4.68;;;;;;;14.58;100.00;102816.78;5202564;28;20078;-80
2021/09/01 04:37:35;;;;;;;13.55;3.97;;;;;;;14.55;100.00;102827.84;5202245;28;20104;-81
2021/09/01 04:40:06;;;;;;;17.83;5.00;;;;;;;14.55;100.00;102826.00;5191426;28;20038;-81
2021/09/01 04:42:37;;;;;;;19.40;5.15;;;;;;;14.51;100.00;102821.91;5200559;28;20029;-81
2021/09/01 04:45:08;;;;;;;13.82;4.32;;;;;;;14.50;100.00;102820.19;5203042;28;20407;-81
2021/09/01 04:47:38;;;;;;;16.98;4.07;;;;;;;14.49;100.00;102822.03;5203182;28;20648;-81
2021/09/01 04:50:09;;;;;;;20.55;5.72;;;;;;;14.47;100.00;102823.16;5202359;28;20125;-81
2021/09/01 04:52:40;;;;;;;21.27;5.05;;;;;;;14.45;100.00;102825.97;5202738;28;20052;-81
2021/09/01 04:55:11;;;;;;;12.80;4.45;;;;;;;14.44;100.00;102827.00;5168306;28;20060;-81
2021/09/01 04:57:41;;;;;;;22.85;4.78;;;;;;;14.45;100.00;102825.13;5202632;28;20026;-81
2021/09/01 05:00:12;;;;;;;16.05;4.93;;;;;;;14.44;100.00;102823.44;5184754;28;20030;-81
2021/09/01 05:02:43;;;;;;;14.05;4.70;;;;;;;14.43;100.00;102821.75;5202419;28;20025;-81
2021/09/01 05:05:13;;;;;;;13.90;4.25;;;;;;;14.44;100.00;102829.69;5198237;28;20556;-82
2021/09/01 05:07:44;;;;;;;16.45;4.72;;;;;;;14.46;100.00;102824.16;5155240;28;20040;-82
2021/09/01 05:10:15;;;;;;;10.95;4.07;;;;;;;14.49;100.00;102827.44;5184235;28;20438;-81
2021/09/01 05:12:48;;;;;;;17.55;5.15;;;;;;;14.46;100.00;102825.00;5202241;28;20032;-81
2021/09/01 05:15:20;;;;;;;19.83;4.70;;;;;;;14.48;100.00;102827.59;5207334;28;20740;-82
2021/09/01 05:17:51;;;;;;;12.02;4.90;;;;;;;14.48;100.00;102828.44;5176378;28;20091;-82
2021/09/01 05:20:21;;;;;;;15.63;4.50;;;;;;;14.53;100.00;102833.41;5207168;28;20479;-80
2021/09/01 05:23:00;;;;;;;17.77;4.85;;;;;;;14.52;100.00;102822.78;5193611;28;20030;-81
2021/09/01 05:25:42;;;;;;;20.17;5.57;;;;;;;14.50;100.00;102831.84;5206550;28;20045;-82
2021/09/01 05:28:15;;;;;;;17.02;4.82;;;;;;;14.52;100.00;102830.88;5202033;28;20026;-81
2021/09/01 05:30:47;;;;;;;18.23;5.45;;;;;;;14.54;100.00;102829.72;5181569;28;20395;-81
2021/09/01 05:33:20;;;;;;;18.92;5.53;;;;;;;14.54;100.00;102834.25;5193522;28;20029;-81
2021/09/01 05:35:52;;;;;;;24.38;5.18;;;;;;;14.53;100.00;102835.28;5189177;28;20403;-81
2021/09/01 05:38:23;;;;;;;16.67;4.50;;;;;;;14.54;100.00;102835.13;5206769;28;20112;-81
2021/09/01 05:40:53;;;;;;;16.98;4.93;;;;;;;14.59;100.00;102843.63;5189356;28;20033;-80
2021/09/01 05:43:26;;;;;;;16.73;4.75;;;;;;;14.71;100.00;102842.50;5206894;28;20032;-80
2021/09/01 05:45:56;;;;;;;18.77;4.95;;;;;;;14.69;100.00;102838.22;5193411;28;20034;-81
2021/09/01 05:48:28;;;;;;;19.35;4.90;;;;;;;14.69;100.00;102844.47;5189152;28;20033;-82
2021/09/01 05:50:58;;;;;;;16.13;4.30;;;;;;;14.73;100.00;102845.91;5175475;28;20313;-82
2021/09/01 05:53:29;;;;;;;22.20;5.00;;;;;;;14.74;100.00;102844.88;5193069;28;20022;-81
2021/09/01 05:56:06;;;;;;;24.42;5.80;;;;;;;14.76;100.00;102845.63;5206416;28;20115;-80
2021/09/01 05:58:38;;;;;;;28.17;5.35;;;;;;;14.75;100.00;102851.13;5205885;28;20429;-81
2021/09/01 06:01:13;;;;;;;17.75;5.32;;;;;;;14.74;100.00;102844.88;5171740;28;20036;-81
2021/09/01 06:03:45;;;;;;;15.10;5.53;;;;;;;14.78;100.00;102848.16;5171539;28;20017;-80
2021/09/01 06:06:20;;;;;;;14.52;5.55;;;;;;;14.81;100.00;102855.09;5189079;28;20049;-81
2021/09/01 06:08:51;;;;;;;;;;;;;;;14.81;100.00;102855.09;5189249;28;20118;-81
2021/09/01 06:11:24;;;;;;;19.27;5.00;;;;;;;14.80;100.00;102848.84;5206108;28;20292;-83
2021/09/01 06:13:55;;;;;;;14.65;4.80;;;;;;;14.87;100.00;102849.16;5206787;28;20025;-81
2021/09/01 06:16:25;;;;;;;23.70;5.78;;;;;;;14.89;100.00;102853.38;5206654;28;20021;-82
2021/09/01 06:18:56;;;;;;;18.83;4.85;;;;;;;14.93;100.00;102848.56;5206812;28;20018;-81
2021/09/01 06:21:26;;;;;;;11.98;5.30;;;;;;;14.95;100.00;102847.41;5185924;28;20109;-80
2021/09/01 06:23:57;;;;;;;15.95;4.78;;;;;;;15.01;100.00;102841.44;5185453;28;20034;-82
2021/09/01 06:26:27;;;;;;;22.17;5.90;;;;;;;15.06;100.00;102846.41;5203599;28;20021;-81
2021/09/01 06:28:58;;;;;;;19.98;5.22;;;;;;;15.14;100.00;102849.19;5185672;28;20064;-80
2021/09/01 06:31:34;;;;;;;17.75;5.68;;;;;;;15.21;100.00;102852.16;5200098;28;20088;-82
2021/09/01 06:34:06;;;;;;;21.48;5.10;;;;;;;15.31;100.00;102852.97;5179172;28;20052;-80
2021/09/01 06:36:36;;;;;;;15.35;5.05;;;;;;;15.36;100.00;102839.88;5211399;28;20077;-80
2021/09/01 06:39:07;;;;;;;16.95;5.13;;;;;;;15.43;100.00;102838.25;5209544;28;20038;-82
2021/09/01 06:41:38;;;;;;;23.40;5.90;;;;;;;15.50;100.00;102835.78;5204020;28;20095;-82
2021/09/01 06:44:09;;;;;;;22.23;5.80;;;;;;;15.62;100.00;102841.88;5186150;28;20075;-83
2021/09/01 06:46:40;;;;;;;18.30;5.07;;;;;;;15.69;100.00;102843.84;5203555;28;20517;-82
2021/09/01 06:49:10;;;;;;;16.75;5.35;;;;;;;15.82;100.00;102848.91;5203843;28;20030;-81
2021/09/01 06:51:41;;;;;;;17.33;4.97;;;;;;;15.88;100.00;102851.00;5205348;28;20026;-83
2021/09/01 06:54:11;;;;;;;19.80;4.85;;;;;;;15.91;100.00;102850.66;5204366;28;20021;-81
2021/09/01 06:56:42;;;;;;;15.43;5.05;;;;;;;15.90;100.00;102843.56;5204530;28;20167;-83
2021/09/01 06:59:12;;;;;;;20.15;5.82;;;;;;;15.99;100.00;102852.63;5189958;28;20487;-82
2021/09/01 07:01:43;;;;;;;18.92;5.93;;;;;;;16.08;100.00;102856.28;5193462;28;20036;-82
2021/09/01 07:04:13;;;;;;;17.42;4.18;;;;;;;16.20;100.00;102861.28;5190128;28;20164;-82
2021/09/01 07:06:44;;;;;;;14.18;5.10;;;;;;;16.31;100.00;102857.50;5187014;28;20028;-82
2021/09/01 07:09:14;;;;;;;18.90;5.13;;;;;;;16.36;100.00;102860.59;5204774;28;20032;-82
2021/09/01 07:11:45;;;;;;;16.25;4.97;;;;;;;16.41;100.00;102868.25;5169416;28;20123;-83
2021/09/01 07:14:15;;;;;;;17.80;5.72;;;;;;;16.40;100.00;102863.84;5205209;28;20025;-82
2021/09/01 07:16:46;;;;;;;16.75;5.80;;;;;;;16.38;100.00;102872.13;5204834;28;20497;-82
2021/09/01 07:19:16;;;;;;;16.52;4.32;;;;;;;16.44;100.00;102873.38;5204966;28;20383;-82
2021/09/01 07:21:47;;;;;;;19.38;5.40;;;;;;;16.51;100.00;102874.44;5206030;28;20038;-83
2021/09/01 07:24:17;;;;;;;19.27;5.20;;;;;;;16.51;100.00;102877.16;5205524;28;20112;-82
2021/09/01 07:26:48;;;;;;;14.48;5.22;;;;;;;16.53;100.00;102875.16;5205089;28;20057;-82
2021/09/01 07:29:19;;;;;;;19.17;5.07;;;;;;;16.59;100.00;102877.22;5192200;28;20030;-82
2021/09/01 07:31:49;;;;;;;19.40;5.15;;;;;;;16.60;100.00;102870.78;5187645;28;20049;-82
2021/09/01 07:34:20;;;;;;;14.65;5.03;;;;;;;16.64;100.00;102869.47;5202094;28;20017;-83
2021/09/01 07:36:50;;;;;;;19.83;4.95;;;;;;;16.72;100.00;102877.72;5174883;28;20035;-83
2021/09/01 07:39:21;;;;;;;15.95;4.97;;;;;;;16.85;100.00;102876.44;5190496;28;20021;-83
2021/09/01 07:41:51;;;;;;;15.20;5.45;;;;;;;16.81;100.00;102878.59;5191559;28;20057;-84
2021/09/01 07:44:22;;;;;;;18.67;5.13;;;;;;;16.81;100.00;102882.16;5197066;28;20444;-84
2021/09/01 07:46:52;;;;;;;20.48;5.95;;;;;;;16.82;100.00;102878.47;5179104;28;20021;-84
2021/09/01 07:49:23;;;;;;;17.58;5.28;;;;;;;16.89;100.00;102880.53;5186248;28;20029;-83
2021/09/01 07:51:53;;;;;;;16.98;5.82;;;;;;;17.05;100.00;102883.34;5153706;28;20025;-83
2021/09/01 07:54:23;;;;;;;16.65;5.20;;;;;;;17.14;100.00;102890.53;5204802;28;20033;-82
2021/09/01 07:56:54;;;;;;;17.58;5.25;;;;;;;17.15;100.00;102883.25;5201419;28;20398;-84
2021/09/01 07:59:25;;;;;;;16.85;5.53;;;;;;;17.24;100.00;102877.72;5193381;28;20021;-83
2021/09/01 08:01:55;;;;;;;20.77;5.10;;;;;;;17.49;100.00;102892.25;5190110;28;20025;-84
2021/09/01 08:04:25;;;;;;;21.23;5.47;;;;;;;17.55;100.00;102888.03;5204327;28;20033;-83
2021/09/01 08:06:57;;;;;;;20.02;5.25;;;;;;;17.58;100.00;102896.72;5200708;28;20038;-83
2021/09/01 08:09:27;;;;;;;13.85;4.80;;;;;;;17.84;100.00;102893.13;5197951;28;20025;-83
2021/09/01 08:11:58;;;;;;;21.38;5.93;;;;;;;17.94;100.00;102898.41;5163353;28;20601;-83
2021/09/01 08:14:28;;;;;;;15.95;5.50;;;;;;;18.04;100.00;102899.97;5196720;28;20541;-83
2021/09/01 08:16:59;;;;;;;21.20;5.32;;;;;;;18.18;100.00;102898.47;5186394;28;20479;-83
2021/09/01 08:19:29;;;;;;;14.27;4.68;;;;;;;18.36;100.00;102904.59;5202209;28;20032;-84
2021/09/01 08:22:00;;;;;;;12.70;4.43;;;;;;;18.45;100.00;102907.31;5157771;28;20044;-85
2021/09/01 08:24:30;;;;;;;14.40;4.35;;;;;;;18.50;100.00;102899.53;5203042;28;20033;-84
2021/09/01 08:27:03;;;;;;;16.02;4.40;;;;;;;18.65;100.00;102905.97;5193947;28;20021;-83
2021/09/01 08:29:33;;;;;;;12.43;4.60;;;;;;;18.61;100.00;102912.75;5200169;28;20119;-83
2021/09/01 08:32:05;;;;;;;17.77;5.30;;;;;;;18.62;100.00;102914.47;5203137;28;20120;-83
2021/09/01 08:34:36;;;;;;;14.57;5.07;;;;;;;18.52;100.00;102916.50;5185624;28;20040;-82
2021/09/01 08:37:07;;;;;;;11.18;4.47;;;;;;;18.55;100.00;102911.59;5203102;28;20101;-83
2021/09/01 08:39:37;;;;;;;20.60;4.93;;;;;;;18.64;100.00;102921.44;5203777;28;20045;-85
2021/09/01 08:42:08;;;;;;;18.45;5.35;;;;;;;18.68;100.00;102916.56;5203564;28;20071;-84
2021/09/01 08:44:40;;;;;;;13.73;4.10;;;;;;;18.71;100.00;102918.06;5194807;28;20091;-83
2021/09/01 08:47:11;;;;;;;11.50;3.60;;;;;;;18.75;100.00;102917.56;5195795;28;20025;-84
2021/09/01 08:49:45;;;;;;;8.35;3.20;;;;;;;18.79;100.00;102918.09;5181909;28;20108;-83
2021/09/01 08:52:15;;;;;;;12.18;3.85;;;;;;;19.02;100.00;102910.91;5195869;28;20026;-82
2021/09/01 08:54:46;;;;;;;15.07;4.80;;;;;;;19.06;100.00;102914.97;5176277;28;20087;-84
2021/09/01 08:57:16;;;;;;;13.35;4.80;;;;;;;18.89;100.00;102919.59;5198265;28;20112;-82
2021/09/01 08:59:47;;;;;;;13.15;4.53;;;;;;;18.82;100.00;102917.72;5194801;28;20026;-82
2021/09/01 09:02:26;;;;;;;15.48;4.70;;;;;;;18.64;100.00;102918.72;5202570;28;20040;-84
2021/09/01 09:04:58;;;;;;;12.90;4.57;;;;;;;18.36;100.00;102915.47;5185017;28;20075;-81
2021/09/01 09:07:28;;;;;;;9.80;4.30;;;;;;;18.29;100.00;102917.16;5202883;28;20029;-82
2021/09/01 09:09:59;;;;;;;14.45;4.53;;;;;;;18.28;100.00;102920.91;5203712;28;20020;-82
2021/09/01 09:12:32;;;;;;;14.25;4.50;;;;;;;18.35;100.00;102921.06;5202798;28;20055;-84
2021/09/01 09:15:03;;;;;;;15.80;3.88;;;;;;;18.31;100.00;102914.25;5202893;28;20024;-83
2021/09/01 09:17:35;;;;;;;12.02;4.60;;;;;;;18.40;100.00;102923.28;5202818;28;20406;-83
2021/09/01 09:20:06;;;;;;;13.80;3.70;;;;;;;18.41;100.00;102919.53;5202034;28;20066;-84
2021/09/01 09:22:40;;;;;;;13.35;4.40;;;;;;;18.35;100.00;102915.63;5172153;28;20068;-82
2021/09/01 09:25:12;;;;;;;17.45;4.82;;;;;;;18.19;100.00;102916.47;5172183;28;20057;-83
2021/09/01 09:27:46;;;;;;;19.80;5.40;;;;;;;18.37;100.00;102917.19;5202483;28;20412;-82
2021/09/01 09:30:27;;;;;;;19.88;4.70;;;;;;;18.61;100.00;102913.63;5192931;28;20026;-83
2021/09/01 09:33:15;;;;;;;19.90;4.45;;;;;;;18.67;100.00;102909.38;5199976;28;20269;-83
2021/09/01 09:35:51;;;;;;;11.73;4.13;;;;;;;18.82;100.00;102913.13;5202050;28;20029;-81
2021/09/01 09:38:31;;;;;;;11.30;4.25;;;;;;;18.84;100.00;102912.97;5193089;28;20018;-82
2021/09/01 09:41:04;;;;;;;11.38;4.03;;;;;;;18.91;100.00;102913.13;5169022;28;20091;-83
2021/09/01 09:43:36;;;;;;;13.70;4.03;;;;;;;18.91;100.00;102916.69;5184545;28;20032;-83
2021/09/01 09:46:10;;;;;;;16.83;4.32;;;;;;;19.09;100.00;102916.53;5201694;28;20091;-82
2021/09/01 09:48:42;;;;;;;20.65;3.92;;;;;;;19.07;100.00;102910.38;5201233;28;20029;-82
2021/09/01 09:51:18;;;;;;;9.98;3.80;;;;;;;19.14;100.00;102905.97;5200486;28;20025;-80
2021/09/01 09:53:51;;;;;;;11.90;3.83;;;;;;;19.21;100.00;102914.28;5197279;28;20270;-81
2021/09/01 09:56:29;;;;;;;13.00;3.97;;;;;;;19.26;100.00;102912.72;5190603;28;20026;-82
2021/09/01 09:58:59;;;;;;;9.77;3.38;;;;;;;19.38;100.00;102903.19;5194401;28;20160;-82
2021/09/01 10:01:30;;;;;;;15.88;5.43;;;;;;;19.40;100.00;102901.13;5147095;28;20033;-82
2021/09/01 10:04:00;;;;;;;12.77;4.40;;;;;;;19.57;100.00;102903.78;5192641;28;20034;-83
2021/09/01 10:06:32;;;;;;;17.40;5.15;;;;;;;19.53;100.00;102897.00;5191240;28;20072;-81
2021/09/01 10:09:04;;;;;;;13.50;3.78;;;;;;;19.73;100.00;102906.50;5205238;28;20021;-82
2021/09/01 10:11:39;;;;;;;17.88;4.80;;;;;;;19.60;100.00;102904.31;5203463;28;20033;-82
2021/09/01 10:14:15;;;;;;;12.43;3.88;;;;;;;19.39;100.00;102904.03;5189078;28;20021;-82
2021/09/01 10:16:53;;;;;;;15.60;4.57;;;;;;;19.34;100.00;102901.00;5207247;28;20021;-83
2021/09/01 10:19:27;;;;;;;13.52;4.35;;;;;;;19.20;100.00;102893.53;5189753;28;20025;-82
2021/09/01 10:22:02;;;;;;;19.67;3.92;;;;;;;19.39;100.00;102896.72;5207388;28;20029;-81
2021/09/01 10:24:36;;;;;;;24.85;5.05;;;;;;;19.40;100.00;102900.28;5205104;28;20029;-83
2021/09/01 10:27:07;;;;;;;16.23;4.15;;;;;;;19.75;100.00;102896.28;5190934;28;20051;-83
2021/09/01 10:29:45;;;;;;;19.70;4.60;;;;;;;19.96;100.00;102882.03;5207029;28;20025;-81
2021/09/01 10:32:23;;;;;;;20.05;4.85;;;;;;;20.11;100.00;102888.41;5207402;28;20034;-80
2021/09/01 10:35:15;;;;;;;13.00;4.03;;;;;;;20.16;100.00;102879.69;5206624;28;20025;-81
2021/09/01 10:37:54;;;;;;;12.98;3.75;;;;;;;20.34;100.00;102882.97;5206699;28;20037;-80
2021/09/01 10:40:25;;;;;;;10.18;3.92;;;;;;;20.34;100.00;102885.69;5204998;28;20059;-82
2021/09/01 10:42:58;;;;;;;10.50;4.00;;;;;;;20.58;100.00;102886.56;5191472;28;20022;-79
2021/09/01 10:45:34;;;;;;;13.98;3.47;;;;;;;20.47;100.00;102882.38;5205721;28;20017;-82
2021/09/01 10:48:08;;;;;;;11.82;4.03;;;;;;;20.45;100.00;102876.25;5204474;28;20519;-83
2021/09/01 10:50:46;;;;;;;10.48;3.70;;;;;;;20.63;100.00;102890.44;5202844;28;20410;-83
2021/09/01 10:53:23;;;;;;;9.70;3.75;;;;;;;20.53;100.00;102886.25;5176061;28;20089;-82
2021/09/01 10:56:05;;;;;;;14.88;4.05;;;;;;;20.50;100.00;102883.91;5194777;28;20025;-81
2021/09/01 10:58:43;;;;;;;10.52;3.85;;;;;;;20.46;100.00;102877.94;5203248;28;20022;-82
2021/09/01 11:01:21;;;;;;;13.18;4.80;;;;;;;20.39;100.00;102875.09;5181336;28;20032;-82
2021/09/01 11:03:54;;;;;;;8.35;3.97;;;;;;;20.41;100.00;102878.47;5206608;28;20036;-82
2021/09/01 11:06:30;;;;;;;11.98;4.40;;;;;;;20.34;100.00;102873.94;5206872;28;20112;-82
2021/09/01 11:09:08;;;;;;;11.52;4.22;;;;;;;20.37;100.00;102873.56;5206189;28;20029;-81
2021/09/01 11:11:41;;;;;;;14.00;5.15;;;;;;;20.34;100.00;102863.91;5216934;28;20386;-82
2021/09/01 11:14:27;;;;;;;10.50;4.90;;;;;;;20.29;100.00;102874.50;5203343;28;20064;-83
2021/09/01 11:16:59;;;;;;;8.43;5.45;;;;;;;20.26;100.00;102872.13;5191681;28;20040;-82
2021/09/01 11:19:30;;;;;;;11.95;4.95;;;;;;;20.28;100.00;102874.66;5190483;28;20037;-81
2021/09/01 11:22:10;;;;;;;14.13;4.85;;;;;;;20.24;100.00;102871.47;5208230;28;20025;-81
2021/09/01 11:24:49;;;;;;;9.85;4.75;;;;;;;20.34;100.00;102876.69;5206276;28;20021;-83
2021/09/01 11:27:23;;;;;;;8.75;4.70;;;;;;;20.35;100.00;102873.75;5206874;28;20013;-82
2021/09/01 11:30:01;;;;;;;12.02;5.13;;;;;;;20.64;100.00;102864.88;5196471;28;20033;-81